sensor_id;sensor_type;location;lat;lon;timestamp;P1;durP1;ratioP1;P2;durP2;ratioP2
23302;SDS011;11820;48.738;9.092;2022-08-26T00:00:49;4.30;;;3.97;;
23302;SDS011;11820;48.738;9.092;2022-08-26T00:03:15;4.83;;;4.00;;
23302;SDS011;11820;48.738;9.092;2022-08-26T00:05:41;4.30;;;3.90;;
23302;SDS011;11820;48.738;9.092;2022-08-26T00:08:07;4.20;;;3.80;;
23302;SDS011;11820;48.738;9.092;2022-08-26T00:10:33;4.60;;;4.10;;
23302;SDS011;11820;48.738;9.092;2022-08-26T00:12:59;5.83;;;3.67;;
23302;SDS011;11820;48.738;9.092;2022-08-26T00:15:24;4.07;;;3.73;;
23302;SDS011;11820;48.738;9.092;2022-08-26T00:17:50;3.83;;;3.53;;
23302;SDS011;11820;48.738;9.092;2022-08-26T00:20:19;4.00;;;3.70;;
23302;SDS011;11820;48.738;9.092;2022-08-26T00:22:46;4.53;;;4.00;;
23302;SDS011;11820;48.738;9.092;2022-08-26T00:25:12;4.23;;;3.90;;
23302;SDS011;11820;48.738;9.092;2022-08-26T00:27:38;4.17;;;3.83;;
23302;SDS011;11820;48.738;9.092;2022-08-26T00:30:05;3.80;;;3.50;;
23302;SDS011;11820;48.738;9.092;2022-08-26T00:32:32;5.70;;;4.20;;
23302;SDS011;11820;48.738;9.092;2022-08-26T00:34:58;4.30;;;3.90;;
23302;SDS011;11820;48.738;9.092;2022-08-26T00:37:23;5.33;;;4.17;;
23302;SDS011;11820;48.738;9.092;2022-08-26T00:39:49;6.17;;;4.03;;
23302;SDS011;11820;48.738;9.092;2022-08-26T00:42:14;4.03;;;3.73;;
23302;SDS011;11820;48.738;9.092;2022-08-26T00:44:40;4.37;;;3.93;;
23302;SDS011;11820;48.738;9.092;2022-08-26T00:47:06;4.40;;;4.00;;
23302;SDS011;11820;48.738;9.092;2022-08-26T00:49:38;5.20;;;4.60;;
23302;SDS011;11820;48.738;9.092;2022-08-26T00:52:07;4.87;;;4.23;;
23302;SDS011;11820;48.738;9.092;2022-08-26T00:54:37;4.60;;;4.20;;
23302;SDS011;11820;48.738;9.092;2022-08-26T00:57:11;4.73;;;4.27;;
23302;SDS011;11820;48.738;9.092;2022-08-26T00:59:40;4.40;;;4.00;;
23302;SDS011;11820;48.738;9.092;2022-08-26T01:02:06;4.30;;;3.90;;
23302;SDS011;11820;48.738;9.092;2022-08-26T01:04:32;4.97;;;4.00;;
23302;SDS011;11820;48.738;9.092;2022-08-26T01:07:00;4.40;;;4.00;;
23302;SDS011;11820;48.738;9.092;2022-08-26T01:09:26;4.47;;;3.90;;
23302;SDS011;11820;48.738;9.092;2022-08-26T01:11:53;9.60;;;4.40;;
23302;SDS011;11820;48.738;9.092;2022-08-26T01:14:21;4.43;;;4.03;;
23302;SDS011;11820;48.738;9.092;2022-08-26T01:16:50;4.60;;;4.10;;
23302;SDS011;11820;48.738;9.092;2022-08-26T01:19:25;5.37;;;4.50;;
23302;SDS011;11820;48.738;9.092;2022-08-26T01:21:55;4.00;;;3.60;;
23302;SDS011;11820;48.738;9.092;2022-08-26T01:24:24;4.00;;;3.70;;
23302;SDS011;11820;48.738;9.092;2022-08-26T01:26:55;4.67;;;3.97;;
23302;SDS011;11820;48.738;9.092;2022-08-26T01:29:24;4.47;;;4.17;;
23302;SDS011;11820;48.738;9.092;2022-08-26T01:31:51;4.10;;;3.80;;
23302;SDS011;11820;48.738;9.092;2022-08-26T01:37:04;4.90;;;4.27;;
23302;SDS011;11820;48.738;9.092;2022-08-26T01:39:32;5.90;;;4.00;;
23302;SDS011;11820;48.738;9.092;2022-08-26T01:41:59;4.60;;;4.17;;
23302;SDS011;11820;48.738;9.092;2022-08-26T01:44:27;5.03;;;4.20;;
23302;SDS011;11820;48.738;9.092;2022-08-26T01:46:57;4.83;;;3.90;;
23302;SDS011;11820;48.738;9.092;2022-08-26T01:49:23;5.20;;;4.70;;
23302;SDS011;11820;48.738;9.092;2022-08-26T01:51:50;4.53;;;4.17;;
23302;SDS011;11820;48.738;9.092;2022-08-26T01:54:19;4.40;;;4.00;;
23302;SDS011;11820;48.738;9.092;2022-08-26T01:56:45;4.67;;;4.07;;
23302;SDS011;11820;48.738;9.092;2022-08-26T01:59:12;4.77;;;4.37;;
23302;SDS011;11820;48.738;9.092;2022-08-26T02:01:40;4.53;;;4.13;;
23302;SDS011;11820;48.738;9.092;2022-08-26T02:06:57;4.77;;;4.33;;
23302;SDS011;11820;48.738;9.092;2022-08-26T02:09:26;4.53;;;4.17;;
23302;SDS011;11820;48.738;9.092;2022-08-26T02:11:52;5.30;;;3.97;;
23302;SDS011;11820;48.738;9.092;2022-08-26T02:14:19;4.17;;;3.77;;
23302;SDS011;11820;48.738;9.092;2022-08-26T02:16:53;5.07;;;4.50;;
23302;SDS011;11820;48.738;9.092;2022-08-26T02:19:21;4.60;;;4.20;;
23302;SDS011;11820;48.738;9.092;2022-08-26T02:21:50;4.73;;;3.90;;
23302;SDS011;11820;48.738;9.092;2022-08-26T02:24:21;4.57;;;4.07;;
23302;SDS011;11820;48.738;9.092;2022-08-26T02:26:49;4.43;;;4.03;;
23302;SDS011;11820;48.738;9.092;2022-08-26T02:29:19;4.33;;;4.03;;
23302;SDS011;11820;48.738;9.092;2022-08-26T02:31:56;5.03;;;4.20;;
23302;SDS011;11820;48.738;9.092;2022-08-26T02:34:25;6.87;;;4.33;;
23302;SDS011;11820;48.738;9.092;2022-08-26T02:37:03;5.00;;;4.47;;
23302;SDS011;11820;48.738;9.092;2022-08-26T02:39:31;4.37;;;4.07;;
23302;SDS011;11820;48.738;9.092;2022-08-26T02:41:57;4.40;;;3.93;;
23302;SDS011;11820;48.738;9.092;2022-08-26T02:44:23;4.77;;;4.27;;
23302;SDS011;11820;48.738;9.092;2022-08-26T02:46:49;4.47;;;4.17;;
23302;SDS011;11820;48.738;9.092;2022-08-26T02:49:15;4.80;;;4.40;;
23302;SDS011;11820;48.738;9.092;2022-08-26T02:51:40;4.40;;;3.70;;
23302;SDS011;11820;48.738;9.092;2022-08-26T02:54:06;5.67;;;4.30;;
23302;SDS011;11820;48.738;9.092;2022-08-26T02:56:32;4.67;;;4.27;;
23302;SDS011;11820;48.738;9.092;2022-08-26T02:58:58;3.90;;;3.50;;
23302;SDS011;11820;48.738;9.092;2022-08-26T03:01:25;4.67;;;4.17;;
23302;SDS011;11820;48.738;9.092;2022-08-26T03:03:52;4.63;;;4.23;;
23302;SDS011;11820;48.738;9.092;2022-08-26T03:06:18;4.17;;;3.87;;
23302;SDS011;11820;48.738;9.092;2022-08-26T03:08:44;4.10;;;3.80;;
23302;SDS011;11820;48.738;9.092;2022-08-26T03:11:10;4.53;;;4.20;;
23302;SDS011;11820;48.738;9.092;2022-08-26T03:13:36;5.10;;;4.53;;
23302;SDS011;11820;48.738;9.092;2022-08-26T03:16:02;4.30;;;3.90;;
23302;SDS011;11820;48.738;9.092;2022-08-26T03:18:28;4.00;;;3.60;;
23302;SDS011;11820;48.738;9.092;2022-08-26T03:20:53;4.07;;;3.77;;
23302;SDS011;11820;48.738;9.092;2022-08-26T03:23:19;4.20;;;3.80;;
23302;SDS011;11820;48.738;9.092;2022-08-26T03:25:51;4.33;;;4.00;;
23302;SDS011;11820;48.738;9.092;2022-08-26T03:28:17;4.90;;;4.40;;
23302;SDS011;11820;48.738;9.092;2022-08-26T03:30:43;5.13;;;4.57;;
23302;SDS011;11820;48.738;9.092;2022-08-26T03:33:09;4.47;;;4.07;;
23302;SDS011;11820;48.738;9.092;2022-08-26T03:35:35;5.53;;;4.73;;
23302;SDS011;11820;48.738;9.092;2022-08-26T03:38:01;4.73;;;4.33;;
23302;SDS011;11820;48.738;9.092;2022-08-26T03:40:28;5.00;;;4.20;;
23302;SDS011;11820;48.738;9.092;2022-08-26T03:42:55;8.10;;;4.83;;
23302;SDS011;11820;48.738;9.092;2022-08-26T03:45:20;5.33;;;3.83;;
23302;SDS011;11820;48.738;9.092;2022-08-26T03:47:46;5.20;;;4.70;;
23302;SDS011;11820;48.738;9.092;2022-08-26T03:50:15;4.50;;;4.20;;
23302;SDS011;11820;48.738;9.092;2022-08-26T03:52:42;4.60;;;4.20;;
23302;SDS011;11820;48.738;9.092;2022-08-26T03:55:08;4.63;;;4.23;;
23302;SDS011;11820;48.738;9.092;2022-08-26T03:57:34;4.47;;;4.17;;
23302;SDS011;11820;48.738;9.092;2022-08-26T03:59:59;3.90;;;3.60;;
23302;SDS011;11820;48.738;9.092;2022-08-26T04:02:25;6.57;;;4.60;;
23302;SDS011;11820;48.738;9.092;2022-08-26T04:04:51;4.43;;;4.13;;
23302;SDS011;11820;48.738;9.092;2022-08-26T04:07:16;5.17;;;4.40;;
23302;SDS011;11820;48.738;9.092;2022-08-26T04:09:41;4.47;;;4.07;;
23302;SDS011;11820;48.738;9.092;2022-08-26T04:12:07;4.30;;;4.00;;
23302;SDS011;11820;48.738;9.092;2022-08-26T04:14:34;3.97;;;3.67;;
23302;SDS011;11820;48.738;9.092;2022-08-26T04:17:01;4.50;;;4.13;;
23302;SDS011;11820;48.738;9.092;2022-08-26T04:19:29;4.60;;;4.20;;
23302;SDS011;11820;48.738;9.092;2022-08-26T04:21:56;4.43;;;4.03;;
23302;SDS011;11820;48.738;9.092;2022-08-26T04:24:23;4.40;;;4.00;;
23302;SDS011;11820;48.738;9.092;2022-08-26T04:26:51;4.70;;;4.20;;
23302;SDS011;11820;48.738;9.092;2022-08-26T04:29:18;4.47;;;3.83;;
23302;SDS011;11820;48.738;9.092;2022-08-26T04:31:45;4.80;;;4.13;;
23302;SDS011;11820;48.738;9.092;2022-08-26T04:34:14;5.00;;;3.90;;
23302;SDS011;11820;48.738;9.092;2022-08-26T04:36:41;4.40;;;4.00;;
23302;SDS011;11820;48.738;9.092;2022-08-26T04:39:08;4.07;;;3.77;;
23302;SDS011;11820;48.738;9.092;2022-08-26T04:41:41;4.67;;;4.30;;
23302;SDS011;11820;48.738;9.092;2022-08-26T04:44:07;4.10;;;3.80;;
23302;SDS011;11820;48.738;9.092;2022-08-26T04:46:33;5.13;;;4.60;;
23302;SDS011;11820;48.738;9.092;2022-08-26T04:48:59;4.43;;;4.03;;
23302;SDS011;11820;48.738;9.092;2022-08-26T04:51:24;4.67;;;3.97;;
23302;SDS011;11820;48.738;9.092;2022-08-26T04:53:56;4.43;;;4.03;;
23302;SDS011;11820;48.738;9.092;2022-08-26T04:56:26;4.63;;;4.17;;
23302;SDS011;11820;48.738;9.092;2022-08-26T04:58:58;4.00;;;3.70;;
23302;SDS011;11820;48.738;9.092;2022-08-26T05:01:24;4.57;;;4.20;;
23302;SDS011;11820;48.738;9.092;2022-08-26T05:03:49;7.37;;;4.60;;
23302;SDS011;11820;48.738;9.092;2022-08-26T05:06:15;4.37;;;3.90;;
23302;SDS011;11820;48.738;9.092;2022-08-26T05:08:41;5.30;;;4.37;;
23302;SDS011;11820;48.738;9.092;2022-08-26T05:11:07;5.07;;;4.57;;
23302;SDS011;11820;48.738;9.092;2022-08-26T05:13:33;4.97;;;4.57;;
23302;SDS011;11820;48.738;9.092;2022-08-26T05:16:03;4.70;;;4.30;;
23302;SDS011;11820;48.738;9.092;2022-08-26T05:18:30;4.50;;;4.20;;
23302;SDS011;11820;48.738;9.092;2022-08-26T05:20:55;5.63;;;4.67;;
23302;SDS011;11820;48.738;9.092;2022-08-26T05:23:22;5.10;;;4.60;;
23302;SDS011;11820;48.738;9.092;2022-08-26T05:25:49;4.60;;;4.20;;
23302;SDS011;11820;48.738;9.092;2022-08-26T05:28:16;5.10;;;4.10;;
23302;SDS011;11820;48.738;9.092;2022-08-26T05:30:43;5.10;;;4.60;;
23302;SDS011;11820;48.738;9.092;2022-08-26T05:33:09;4.70;;;4.30;;
23302;SDS011;11820;48.738;9.092;2022-08-26T05:35:35;4.80;;;4.40;;
23302;SDS011;11820;48.738;9.092;2022-08-26T05:38:03;5.37;;;4.70;;
23302;SDS011;11820;48.738;9.092;2022-08-26T05:40:34;6.20;;;4.70;;
23302;SDS011;11820;48.738;9.092;2022-08-26T05:43:02;4.67;;;4.27;;
23302;SDS011;11820;48.738;9.092;2022-08-26T05:45:34;5.40;;;4.90;;
23302;SDS011;11820;48.738;9.092;2022-08-26T05:48:00;5.20;;;4.70;;
23302;SDS011;11820;48.738;9.092;2022-08-26T05:50:25;4.30;;;3.90;;
23302;SDS011;11820;48.738;9.092;2022-08-26T05:52:50;4.90;;;4.50;;
23302;SDS011;11820;48.738;9.092;2022-08-26T05:55:19;6.50;;;4.93;;
23302;SDS011;11820;48.738;9.092;2022-08-26T05:57:44;4.97;;;4.57;;
23302;SDS011;11820;48.738;9.092;2022-08-26T06:00:10;5.17;;;4.67;;
23302;SDS011;11820;48.738;9.092;2022-08-26T06:02:36;8.30;;;4.83;;
23302;SDS011;11820;48.738;9.092;2022-08-26T06:05:03;5.53;;;4.70;;
23302;SDS011;11820;48.738;9.092;2022-08-26T06:07:28;5.60;;;4.83;;
23302;SDS011;11820;48.738;9.092;2022-08-26T06:10:12;5.70;;;4.60;;
23302;SDS011;11820;48.738;9.092;2022-08-26T06:12:38;4.30;;;4.00;;
23302;SDS011;11820;48.738;9.092;2022-08-26T06:15:04;4.90;;;4.47;;
23302;SDS011;11820;48.738;9.092;2022-08-26T06:17:30;4.70;;;4.30;;
23302;SDS011;11820;48.738;9.092;2022-08-26T06:19:59;7.53;;;5.17;;
23302;SDS011;11820;48.738;9.092;2022-08-26T06:22:33;9.47;;;5.67;;
23302;SDS011;11820;48.738;9.092;2022-08-26T06:25:23;5.80;;;4.80;;
23302;SDS011;11820;48.738;9.092;2022-08-26T06:28:04;4.87;;;4.47;;
23302;SDS011;11820;48.738;9.092;2022-08-26T06:30:31;5.50;;;4.97;;
23302;SDS011;11820;48.738;9.092;2022-08-26T06:33:06;4.97;;;4.47;;
23302;SDS011;11820;48.738;9.092;2022-08-26T06:35:36;5.40;;;4.63;;
23302;SDS011;11820;48.738;9.092;2022-08-26T06:38:24;6.20;;;4.80;;
23302;SDS011;11820;48.738;9.092;2022-08-26T06:40:50;5.10;;;3.87;;
23302;SDS011;11820;48.738;9.092;2022-08-26T06:43:21;5.17;;;4.67;;
23302;SDS011;11820;48.738;9.092;2022-08-26T06:45:50;5.20;;;4.73;;
23302;SDS011;11820;48.738;9.092;2022-08-26T06:48:17;5.63;;;5.00;;
23302;SDS011;11820;48.738;9.092;2022-08-26T06:50:44;5.00;;;4.60;;
23302;SDS011;11820;48.738;9.092;2022-08-26T06:53:11;4.70;;;4.30;;
23302;SDS011;11820;48.738;9.092;2022-08-26T06:55:41;5.67;;;4.57;;
23302;SDS011;11820;48.738;9.092;2022-08-26T06:58:08;7.77;;;4.50;;
23302;SDS011;11820;48.738;9.092;2022-08-26T07:00:33;4.80;;;4.40;;
23302;SDS011;11820;48.738;9.092;2022-08-26T07:03:00;4.97;;;4.57;;
23302;SDS011;11820;48.738;9.092;2022-08-26T07:05:26;4.70;;;3.83;;
23302;SDS011;11820;48.738;9.092;2022-08-26T07:07:52;5.47;;;4.40;;
23302;SDS011;11820;48.738;9.092;2022-08-26T07:10:17;4.53;;;4.23;;
23302;SDS011;11820;48.738;9.092;2022-08-26T07:12:43;6.30;;;4.40;;
23302;SDS011;11820;48.738;9.092;2022-08-26T07:15:09;4.50;;;4.20;;
23302;SDS011;11820;48.738;9.092;2022-08-26T07:17:35;4.47;;;3.90;;
23302;SDS011;11820;48.738;9.092;2022-08-26T07:20:01;6.73;;;4.47;;
23302;SDS011;11820;48.738;9.092;2022-08-26T07:22:27;5.23;;;4.33;;
23302;SDS011;11820;48.738;9.092;2022-08-26T07:24:52;6.57;;;4.00;;
23302;SDS011;11820;48.738;9.092;2022-08-26T07:27:18;4.33;;;3.93;;
23302;SDS011;11820;48.738;9.092;2022-08-26T07:29:44;7.13;;;4.20;;
23302;SDS011;11820;48.738;9.092;2022-08-26T07:32:10;4.80;;;4.30;;
23302;SDS011;11820;48.738;9.092;2022-08-26T07:34:43;9.73;;;5.20;;
23302;SDS011;11820;48.738;9.092;2022-08-26T07:37:09;4.87;;;4.20;;
23302;SDS011;11820;48.738;9.092;2022-08-26T07:39:35;4.77;;;3.93;;
23302;SDS011;11820;48.738;9.092;2022-08-26T07:42:01;6.37;;;4.00;;
23302;SDS011;11820;48.738;9.092;2022-08-26T07:44:28;4.17;;;3.53;;
23302;SDS011;11820;48.738;9.092;2022-08-26T07:46:53;4.47;;;4.00;;
23302;SDS011;11820;48.738;9.092;2022-08-26T07:49:22;4.57;;;4.00;;
23302;SDS011;11820;48.738;9.092;2022-08-26T07:51:49;4.50;;;3.47;;
23302;SDS011;11820;48.738;9.092;2022-08-26T07:54:14;4.57;;;3.63;;
23302;SDS011;11820;48.738;9.092;2022-08-26T07:56:40;3.63;;;3.33;;
23302;SDS011;11820;48.738;9.092;2022-08-26T07:59:06;3.50;;;3.20;;
23302;SDS011;11820;48.738;9.092;2022-08-26T08:01:32;4.20;;;3.17;;
23302;SDS011;11820;48.738;9.092;2022-08-26T08:03:58;5.03;;;3.53;;
23302;SDS011;11820;48.738;9.092;2022-08-26T08:06:24;5.27;;;4.17;;
23302;SDS011;11820;48.738;9.092;2022-08-26T08:08:50;6.37;;;4.03;;
23302;SDS011;11820;48.738;9.092;2022-08-26T08:11:16;4.20;;;3.70;;
23302;SDS011;11820;48.738;9.092;2022-08-26T08:13:44;6.50;;;3.80;;
23302;SDS011;11820;48.738;9.092;2022-08-26T08:16:10;8.83;;;4.23;;
23302;SDS011;11820;48.738;9.092;2022-08-26T08:18:35;8.33;;;4.07;;
23302;SDS011;11820;48.738;9.092;2022-08-26T08:21:00;14.33;;;9.90;;
23302;SDS011;11820;48.738;9.092;2022-08-26T08:23:27;7.43;;;5.47;;
23302;SDS011;11820;48.738;9.092;2022-08-26T08:26:04;7.40;;;4.37;;
23302;SDS011;11820;48.738;9.092;2022-08-26T08:28:34;4.70;;;4.27;;
23302;SDS011;11820;48.738;9.092;2022-08-26T08:31:01;6.50;;;3.87;;
23302;SDS011;11820;48.738;9.092;2022-08-26T08:33:26;4.40;;;3.93;;
23302;SDS011;11820;48.738;9.092;2022-08-26T08:35:54;6.07;;;4.50;;
23302;SDS011;11820;48.738;9.092;2022-08-26T08:38:20;5.60;;;3.90;;
23302;SDS011;11820;48.738;9.092;2022-08-26T08:40:45;5.37;;;3.97;;
23302;SDS011;11820;48.738;9.092;2022-08-26T08:43:12;10.93;;;4.33;;
23302;SDS011;11820;48.738;9.092;2022-08-26T08:46:09;4.20;;;3.77;;
23302;SDS011;11820;48.738;9.092;2022-08-26T08:48:40;6.07;;;4.20;;
23302;SDS011;11820;48.738;9.092;2022-08-26T08:54:03;4.90;;;3.73;;
23302;SDS011;11820;48.738;9.092;2022-08-26T09:06:51;6.57;;;4.50;;
23302;SDS011;11820;48.738;9.092;2022-08-26T09:09:25;6.00;;;4.13;;
23302;SDS011;11820;48.738;9.092;2022-08-26T09:12:03;6.40;;;4.30;;
23302;SDS011;11820;48.738;9.092;2022-08-26T09:14:35;6.53;;;4.87;;
23302;SDS011;11820;48.738;9.092;2022-08-26T09:17:06;5.37;;;4.30;;
23302;SDS011;11820;48.738;9.092;2022-08-26T09:19:48;7.43;;;4.30;;
23302;SDS011;11820;48.738;9.092;2022-08-26T09:22:26;8.07;;;5.03;;
23302;SDS011;11820;48.738;9.092;2022-08-26T09:24:54;4.97;;;4.43;;
23302;SDS011;11820;48.738;9.092;2022-08-26T09:30:14;9.50;;;5.43;;
23302;SDS011;11820;48.738;9.092;2022-08-26T09:32:47;7.10;;;4.90;;
23302;SDS011;11820;48.738;9.092;2022-08-26T09:37:56;7.47;;;4.83;;
23302;SDS011;11820;48.738;9.092;2022-08-26T09:40:31;5.70;;;4.97;;
23302;SDS011;11820;48.738;9.092;2022-08-26T09:45:47;7.93;;;5.50;;
23302;SDS011;11820;48.738;9.092;2022-08-26T09:48:25;13.43;;;5.70;;
23302;SDS011;11820;48.738;9.092;2022-08-26T09:50:59;7.37;;;5.20;;
23302;SDS011;11820;48.738;9.092;2022-08-26T09:53:29;12.30;;;5.97;;
23302;SDS011;11820;48.738;9.092;2022-08-26T09:56:12;7.23;;;5.70;;
23302;SDS011;11820;48.738;9.092;2022-08-26T09:58:42;6.20;;;5.40;;
23302;SDS011;11820;48.738;9.092;2022-08-26T10:03:43;9.10;;;4.83;;
23302;SDS011;11820;48.738;9.092;2022-08-26T10:08:42;9.77;;;5.57;;
23302;SDS011;11820;48.738;9.092;2022-08-26T10:14:42;12.57;;;6.07;;
23302;SDS011;11820;48.738;9.092;2022-08-26T10:20:05;12.53;;;6.10;;
23302;SDS011;11820;48.738;9.092;2022-08-26T10:22:39;6.93;;;5.63;;
23302;SDS011;11820;48.738;9.092;2022-08-26T10:25:11;10.13;;;5.60;;
23302;SDS011;11820;48.738;9.092;2022-08-26T10:30:44;9.40;;;5.57;;
23302;SDS011;11820;48.738;9.092;2022-08-26T10:33:13;8.60;;;5.97;;
23302;SDS011;11820;48.738;9.092;2022-08-26T10:35:43;10.73;;;5.53;;
23302;SDS011;11820;48.738;9.092;2022-08-26T10:38:18;11.63;;;5.67;;
23302;SDS011;11820;48.738;9.092;2022-08-26T10:43:29;8.70;;;5.47;;
23302;SDS011;11820;48.738;9.092;2022-08-26T10:46:07;5.80;;;5.13;;
23302;SDS011;11820;48.738;9.092;2022-08-26T10:48:58;5.93;;;4.50;;
23302;SDS011;11820;48.738;9.092;2022-08-26T10:51:39;8.27;;;5.40;;
23302;SDS011;11820;48.738;9.092;2022-08-26T10:57:19;8.80;;;4.87;;
23302;SDS011;11820;48.738;9.092;2022-08-26T11:02:58;7.90;;;5.30;;
23302;SDS011;11820;48.738;9.092;2022-08-26T11:05:30;8.43;;;5.00;;
23302;SDS011;11820;48.738;9.092;2022-08-26T11:10:54;7.17;;;5.33;;
23302;SDS011;11820;48.738;9.092;2022-08-26T11:13:56;9.80;;;5.80;;
23302;SDS011;11820;48.738;9.092;2022-08-26T11:19:00;9.27;;;5.40;;
23302;SDS011;11820;48.738;9.092;2022-08-26T11:27:07;7.00;;;5.33;;
23302;SDS011;11820;48.738;9.092;2022-08-26T11:32:24;7.40;;;5.43;;
23302;SDS011;11820;48.738;9.092;2022-08-26T11:35:06;12.00;;;5.70;;
23302;SDS011;11820;48.738;9.092;2022-08-26T11:40:16;8.23;;;4.97;;
23302;SDS011;11820;48.738;9.092;2022-08-26T11:45:38;6.10;;;4.50;;
23302;SDS011;11820;48.738;9.092;2022-08-26T11:48:16;8.10;;;4.45;;
23302;SDS011;11820;48.738;9.092;2022-08-26T11:50:51;8.70;;;5.50;;
23302;SDS011;11820;48.738;9.092;2022-08-26T11:53:38;13.20;;;5.07;;
23302;SDS011;11820;48.738;9.092;2022-08-26T11:56:14;7.93;;;4.25;;
23302;SDS011;11820;48.738;9.092;2022-08-26T11:58:48;6.53;;;3.90;;
23302;SDS011;11820;48.738;9.092;2022-08-26T12:01:22;6.35;;;4.05;;
23302;SDS011;11820;48.738;9.092;2022-08-26T12:03:51;11.65;;;7.40;;
23302;SDS011;11820;48.738;9.092;2022-08-26T12:09:36;7.68;;;4.75;;
23302;SDS011;11820;48.738;9.092;2022-08-26T12:14:42;6.72;;;5.60;;
23302;SDS011;11820;48.738;9.092;2022-08-26T12:17:14;8.05;;;6.72;;
23302;SDS011;11820;48.738;9.092;2022-08-26T12:19:41;9.63;;;5.40;;
23302;SDS011;11820;48.738;9.092;2022-08-26T12:24:52;7.70;;;5.18;;
23302;SDS011;11820;48.738;9.092;2022-08-26T12:27:22;6.13;;;4.90;;
23302;SDS011;11820;48.738;9.092;2022-08-26T12:30:00;6.22;;;4.72;;
23302;SDS011;11820;48.738;9.092;2022-08-26T12:32:29;6.00;;;4.05;;
23302;SDS011;11820;48.738;9.092;2022-08-26T12:34:55;6.07;;;5.43;;
23302;SDS011;11820;48.738;9.092;2022-08-26T12:37:22;5.75;;;4.22;;
23302;SDS011;11820;48.738;9.092;2022-08-26T12:39:48;7.72;;;5.20;;
23302;SDS011;11820;48.738;9.092;2022-08-26T12:44:44;10.23;;;4.70;;
23302;SDS011;11820;48.738;9.092;2022-08-26T12:47:19;5.43;;;4.85;;
23302;SDS011;11820;48.738;9.092;2022-08-26T12:52:40;7.07;;;4.10;;
23302;SDS011;11820;48.738;9.092;2022-08-26T12:57:49;7.90;;;4.28;;
23302;SDS011;11820;48.738;9.092;2022-08-26T13:00:35;6.07;;;4.88;;
23302;SDS011;11820;48.738;9.092;2022-08-26T13:03:03;6.25;;;4.07;;
23302;SDS011;11820;48.738;9.092;2022-08-26T13:05:48;6.63;;;4.82;;
23302;SDS011;11820;48.738;9.092;2022-08-26T13:08:15;5.93;;;5.15;;
23302;SDS011;11820;48.738;9.092;2022-08-26T13:10:59;7.65;;;5.47;;
23302;SDS011;11820;48.738;9.092;2022-08-26T13:13:31;6.55;;;5.95;;
23302;SDS011;11820;48.738;9.092;2022-08-26T13:15:57;9.40;;;5.95;;
23302;SDS011;11820;48.738;9.092;2022-08-26T13:18:23;7.25;;;6.07;;
23302;SDS011;11820;48.738;9.092;2022-08-26T13:20:49;11.23;;;5.05;;
23302;SDS011;11820;48.738;9.092;2022-08-26T13:23:14;8.07;;;5.45;;
23302;SDS011;11820;48.738;9.092;2022-08-26T13:25:40;8.23;;;5.93;;
23302;SDS011;11820;48.738;9.092;2022-08-26T13:28:05;11.40;;;6.07;;
23302;SDS011;11820;48.738;9.092;2022-08-26T13:30:31;6.05;;;5.32;;
23302;SDS011;11820;48.738;9.092;2022-08-26T13:32:56;10.80;;;5.87;;
23302;SDS011;11820;48.738;9.092;2022-08-26T13:35:24;8.37;;;5.70;;
23302;SDS011;11820;48.738;9.092;2022-08-26T13:37:50;8.63;;;7.07;;
23302;SDS011;11820;48.738;9.092;2022-08-26T13:40:15;13.77;;;7.13;;
23302;SDS011;11820;48.738;9.092;2022-08-26T13:42:41;10.77;;;6.80;;
23302;SDS011;11820;48.738;9.092;2022-08-26T13:45:06;10.97;;;6.80;;
23302;SDS011;11820;48.738;9.092;2022-08-26T13:47:34;13.43;;;7.03;;
23302;SDS011;11820;48.738;9.092;2022-08-26T13:49:59;8.60;;;7.47;;
23302;SDS011;11820;48.738;9.092;2022-08-26T13:52:25;9.53;;;6.83;;
23302;SDS011;11820;48.738;9.092;2022-08-26T13:54:50;9.13;;;7.10;;
23302;SDS011;11820;48.738;9.092;2022-08-26T13:57:16;17.63;;;6.60;;
23302;SDS011;11820;48.738;9.092;2022-08-26T13:59:41;12.30;;;6.83;;
23302;SDS011;11820;48.738;9.092;2022-08-26T14:02:07;9.77;;;6.60;;
23302;SDS011;11820;48.738;9.092;2022-08-26T14:04:32;11.70;;;6.73;;
23302;SDS011;11820;48.738;9.092;2022-08-26T14:06:58;9.27;;;6.20;;
23302;SDS011;11820;48.738;9.092;2022-08-26T14:09:23;14.90;;;6.07;;
23302;SDS011;11820;48.738;9.092;2022-08-26T14:11:48;29.67;;;11.70;;
23302;SDS011;11820;48.738;9.092;2022-08-26T14:14:14;56.03;;;20.93;;
23302;SDS011;11820;48.738;9.092;2022-08-26T14:16:39;92.33;;;32.17;;
23302;SDS011;11820;48.738;9.092;2022-08-26T14:19:06;21.20;;;10.27;;
23302;SDS011;11820;48.738;9.092;2022-08-26T14:21:35;82.80;;;28.93;;
23302;SDS011;11820;48.738;9.092;2022-08-26T14:24:03;95.10;;;30.37;;
23302;SDS011;11820;48.738;9.092;2022-08-26T14:26:30;78.53;;;29.00;;
23302;SDS011;11820;48.738;9.092;2022-08-26T14:28:58;55.47;;;22.93;;
23302;SDS011;11820;48.738;9.092;2022-08-26T14:31:24;56.00;;;21.83;;
23302;SDS011;11820;48.738;9.092;2022-08-26T14:33:51;58.87;;;19.23;;
23302;SDS011;11820;48.738;9.092;2022-08-26T14:36:16;39.53;;;16.83;;
23302;SDS011;11820;48.738;9.092;2022-08-26T14:39:04;39.63;;;17.67;;
23302;SDS011;11820;48.738;9.092;2022-08-26T14:41:32;31.83;;;14.73;;
23302;SDS011;11820;48.738;9.092;2022-08-26T14:44:02;20.30;;;8.90;;
23302;SDS011;11820;48.738;9.092;2022-08-26T14:46:30;19.07;;;8.70;;
23302;SDS011;11820;48.738;9.092;2022-08-26T14:49:07;14.10;;;6.60;;
23302;SDS011;11820;48.738;9.092;2022-08-26T14:51:33;9.83;;;5.87;;
23302;SDS011;11820;48.738;9.092;2022-08-26T14:53:58;12.47;;;5.90;;
23302;SDS011;11820;48.738;9.092;2022-08-26T14:56:49;7.70;;;5.63;;
23302;SDS011;11820;48.738;9.092;2022-08-26T14:59:20;8.93;;;5.27;;
23302;SDS011;11820;48.738;9.092;2022-08-26T15:01:47;11.73;;;5.50;;
23302;SDS011;11820;48.738;9.092;2022-08-26T15:04:13;6.43;;;4.77;;
23302;SDS011;11820;48.738;9.092;2022-08-26T15:06:39;6.67;;;4.67;;
23302;SDS011;11820;48.738;9.092;2022-08-26T15:09:04;6.40;;;4.43;;
23302;SDS011;11820;48.738;9.092;2022-08-26T15:11:30;7.72;;;3.92;;
23302;SDS011;11820;48.738;9.092;2022-08-26T15:13:55;6.43;;;4.50;;
23302;SDS011;11820;48.738;9.092;2022-08-26T15:16:22;7.30;;;4.10;;
23302;SDS011;11820;48.738;9.092;2022-08-26T15:18:48;6.60;;;4.37;;
23302;SDS011;11820;48.738;9.092;2022-08-26T15:21:15;7.40;;;4.30;;
23302;SDS011;11820;48.738;9.092;2022-08-26T15:23:41;6.43;;;3.63;;
23302;SDS011;11820;48.738;9.092;2022-08-26T15:26:07;6.30;;;3.97;;
23302;SDS011;11820;48.738;9.092;2022-08-26T15:28:34;6.73;;;4.10;;
23302;SDS011;11820;48.738;9.092;2022-08-26T15:31:00;8.73;;;4.13;;
23302;SDS011;11820;48.738;9.092;2022-08-26T15:33:26;8.03;;;4.90;;
23302;SDS011;11820;48.738;9.092;2022-08-26T15:35:51;5.40;;;3.80;;
23302;SDS011;11820;48.738;9.092;2022-08-26T15:38:17;8.63;;;4.83;;
23302;SDS011;11820;48.738;9.092;2022-08-26T15:40:42;10.53;;;5.73;;
23302;SDS011;11820;48.738;9.092;2022-08-26T15:43:08;9.40;;;6.80;;
23302;SDS011;11820;48.738;9.092;2022-08-26T15:45:34;12.57;;;6.63;;
23302;SDS011;11820;48.738;9.092;2022-08-26T15:47:59;14.83;;;7.20;;
23302;SDS011;11820;48.738;9.092;2022-08-26T15:50:26;11.60;;;6.43;;
23302;SDS011;11820;48.738;9.092;2022-08-26T15:52:52;9.07;;;6.10;;
23302;SDS011;11820;48.738;9.092;2022-08-26T15:55:18;7.73;;;5.37;;
23302;SDS011;11820;48.738;9.092;2022-08-26T15:57:44;10.47;;;6.53;;
23302;SDS011;11820;48.738;9.092;2022-08-26T16:00:10;9.77;;;5.50;;
23302;SDS011;11820;48.738;9.092;2022-08-26T16:02:35;11.60;;;6.13;;
23302;SDS011;11820;48.738;9.092;2022-08-26T16:05:01;7.40;;;5.40;;
23302;SDS011;11820;48.738;9.092;2022-08-26T16:07:26;7.63;;;6.00;;
23302;SDS011;11820;48.738;9.092;2022-08-26T16:09:51;9.33;;;6.47;;
23302;SDS011;11820;48.738;9.092;2022-08-26T16:12:18;8.33;;;6.30;;
23302;SDS011;11820;48.738;9.092;2022-08-26T16:14:44;7.37;;;5.60;;
23302;SDS011;11820;48.738;9.092;2022-08-26T16:17:09;9.13;;;6.40;;
23302;SDS011;11820;48.738;9.092;2022-08-26T16:19:36;8.77;;;6.13;;